sensor_id;sensor_type;location;lat;lon;timestamp;P1;P2;P0
50866;PMS7003;36839;51.946;21.002;2024-01-07T00:00:22;13.00;12.00;9.00
50866;PMS7003;36839;51.946;21.002;2024-01-07T00:03:45;14.50;9.00;5.00
50866;PMS7003;36839;51.946;21.002;2024-01-07T00:07:16;13.50;9.50;6.50
50866;PMS7003;36839;51.946;21.002;2024-01-07T00:09:50;10.50;8.50;5.50
50866;PMS7003;36839;51.946;21.002;2024-01-07T00:12:44;9.00;9.00;7.50
50866;PMS7003;36839;51.946;21.002;2024-01-07T00:18:33;13.00;13.00;9.00
50866;PMS7003;36839;51.946;21.002;2024-01-07T00:21:30;9.00;8.00;4.50
50866;PMS7003;36839;51.946;21.002;2024-01-07T00:24:37;11.50;11.50;8.50
50866;PMS7003;36839;51.946;21.002;2024-01-07T00:30:37;18.00;11.00;9.00
50866;PMS7003;36839;51.946;21.002;2024-01-07T00:33:25;7.00;6.00;4.00
50866;PMS7003;36839;51.946;21.002;2024-01-07T00:36:19;13.50;9.00;6.50
50866;PMS7003;36839;51.946;21.002;2024-01-07T00:39:12;25.00;14.50;9.00
50866;PMS7003;36839;51.946;21.002;2024-01-07T00:42:01;15.00;12.00;8.00
50866;PMS7003;36839;51.946;21.002;2024-01-07T00:47:44;12.00;12.00;8.00
50866;PMS7003;36839;51.946;21.002;2024-01-07T00:50:38;9.50;5.00;4.00
50866;PMS7003;36839;51.946;21.002;2024-01-07T00:53:54;7.50;7.50;5.00
50866;PMS7003;36839;51.946;21.002;2024-01-07T00:56:52;17.00;11.00;8.00
50866;PMS7003;36839;51.946;21.002;2024-01-07T01:03:22;10.00;9.00;7.00
50866;PMS7003;36839;51.946;21.002;2024-01-07T01:06:32;20.00;11.00;8.00
50866;PMS7003;36839;51.946;21.002;2024-01-07T01:09:33;15.00;11.00;8.00
50866;PMS7003;36839;51.946;21.002;2024-01-07T01:15:50;14.00;7.00;7.00
50866;PMS7003;36839;51.946;21.002;2024-01-07T01:18:52;12.00;11.00;8.00
50866;PMS7003;36839;51.946;21.002;2024-01-07T01:22:05;8.00;7.00;4.00
50866;PMS7003;36839;51.946;21.002;2024-01-07T01:25:04;8.50;8.50;7.00
50866;PMS7003;36839;51.946;21.002;2024-01-07T01:27:42;15.00;8.00;5.00
50866;PMS7003;36839;51.946;21.002;2024-01-07T01:30:39;4.00;4.00;3.33
50866;PMS7003;36839;51.946;21.002;2024-01-07T01:33:51;14.00;11.00;9.00
50866;PMS7003;36839;51.946;21.002;2024-01-07T01:37:00;8.00;8.00;7.00
50866;PMS7003;36839;51.946;21.002;2024-01-07T01:39:56;5.00;5.00;2.00
50866;PMS7003;36839;51.946;21.002;2024-01-07T01:42:42;9.00;7.00;4.50
50866;PMS7003;36839;51.946;21.002;2024-01-07T01:45:36;9.00;9.00;7.50
50866;PMS7003;36839;51.946;21.002;2024-01-07T01:48:30;11.00;7.00;5.00
50866;PMS7003;36839;51.946;21.002;2024-01-07T01:51:27;7.50;4.00;4.00
50866;PMS7003;36839;51.946;21.002;2024-01-07T01:54:05;9.50;9.50;7.00
50866;PMS7003;36839;51.946;21.002;2024-01-07T01:56:48;15.00;10.00;7.00
50866;PMS7003;36839;51.946;21.002;2024-01-07T01:59:26;6.00;4.50;4.00
50866;PMS7003;36839;51.946;21.002;2024-01-07T02:02:19;21.00;9.00;7.00
50866;PMS7003;36839;51.946;21.002;2024-01-07T02:05:15;16.00;11.00;8.00
50866;PMS7003;36839;51.946;21.002;2024-01-07T02:07:58;10.00;10.00;7.00
50866;PMS7003;36839;51.946;21.002;2024-01-07T02:10:58;11.50;10.00;8.00
50866;PMS7003;36839;51.946;21.002;2024-01-07T02:13:39;17.00;12.00;10.00
50866;PMS7003;36839;51.946;21.002;2024-01-07T02:16:20;11.00;11.00;7.00
50866;PMS7003;36839;51.946;21.002;2024-01-07T02:19:02;14.00;11.00;7.50
50866;PMS7003;36839;51.946;21.002;2024-01-07T02:22:26;20.00;14.00;10.00
50866;PMS7003;36839;51.946;21.002;2024-01-07T02:25:26;12.50;10.50;6.50
50866;PMS7003;36839;51.946;21.002;2024-01-07T02:28:19;16.00;13.00;8.00
50866;PMS7003;36839;51.946;21.002;2024-01-07T02:31:02;11.00;10.00;7.50
50866;PMS7003;36839;51.946;21.002;2024-01-07T02:33:56;8.00;7.00;2.00
50866;PMS7003;36839;51.946;21.002;2024-01-07T02:39:35;13.00;11.00;10.00
50866;PMS7003;36839;51.946;21.002;2024-01-07T02:42:20;11.00;11.00;7.50
50866;PMS7003;36839;51.946;21.002;2024-01-07T02:45:01;2.50;0.00;0.00
50866;PMS7003;36839;51.946;21.002;2024-01-07T02:48:32;19.00;11.00;8.00
50866;PMS7003;36839;51.946;21.002;2024-01-07T02:51:41;15.00;12.00;9.00
50866;PMS7003;36839;51.946;21.002;2024-01-07T02:57:34;10.50;10.50;9.00
50866;PMS7003;36839;51.946;21.002;2024-01-07T03:00:28;12.00;10.50;8.00
50866;PMS7003;36839;51.946;21.002;2024-01-07T03:03:04;24.00;15.00;10.00
50866;PMS7003;36839;51.946;21.002;2024-01-07T03:05:56;10.33;9.33;7.00
50866;PMS7003;36839;51.946;21.002;2024-01-07T03:11:17;7.00;7.00;7.00
50866;PMS7003;36839;51.946;21.002;2024-01-07T03:17:09;13.00;11.00;7.00
50866;PMS7003;36839;51.946;21.002;2024-01-07T03:19:57;11.00;9.00;7.00
50866;PMS7003;36839;51.946;21.002;2024-01-07T03:22:40;7.50;7.50;4.00
50866;PMS7003;36839;51.946;21.002;2024-01-07T03:25:37;10.50;10.50;8.00
50866;PMS7003;36839;51.946;21.002;2024-01-07T03:28:20;18.00;11.00;9.00
50866;PMS7003;36839;51.946;21.002;2024-01-07T03:30:52;13.00;10.00;7.00
50866;PMS7003;36839;51.946;21.002;2024-01-07T03:34:00;16.00;11.00;9.00
50866;PMS7003;36839;51.946;21.002;2024-01-07T03:36:48;11.00;10.00;5.00
50866;PMS7003;36839;51.946;21.002;2024-01-07T03:39:43;11.00;10.00;7.00
50866;PMS7003;36839;51.946;21.002;2024-01-07T03:42:16;11.00;10.00;5.00
50866;PMS7003;36839;51.946;21.002;2024-01-07T03:45:04;15.50;9.50;8.00
50866;PMS7003;36839;51.946;21.002;2024-01-07T03:47:51;12.50;8.00;7.00
50866;PMS7003;36839;51.946;21.002;2024-01-07T03:53:58;9.00;7.50;4.50
50866;PMS7003;36839;51.946;21.002;2024-01-07T03:56:54;13.00;10.50;7.50
50866;PMS7003;36839;51.946;21.002;2024-01-07T03:59:33;10.33;9.33;8.67
50866;PMS7003;36839;51.946;21.002;2024-01-07T04:02:19;16.00;12.00;7.00
50866;PMS7003;36839;51.946;21.002;2024-01-07T04:05:07;15.00;10.00;7.00
50866;PMS7003;36839;51.946;21.002;2024-01-07T04:08:03;13.50;10.00;8.00
50866;PMS7003;36839;51.946;21.002;2024-01-07T04:11:19;10.00;10.00;5.00
50866;PMS7003;36839;51.946;21.002;2024-01-07T04:14:15;12.50;8.00;5.50
50866;PMS7003;36839;51.946;21.002;2024-01-07T04:17:24;8.00;6.00;4.00
50866;PMS7003;36839;51.946;21.002;2024-01-07T04:20:20;13.00;10.50;7.00
50866;PMS7003;36839;51.946;21.002;2024-01-07T04:22:55;16.00;10.00;7.00
50866;PMS7003;36839;51.946;21.002;2024-01-07T04:25:30;10.00;10.00;8.00
50866;PMS7003;36839;51.946;21.002;2024-01-07T04:28:37;13.00;8.00;7.00
50866;PMS7003;36839;51.946;21.002;2024-01-07T04:31:29;10.00;10.00;5.00
50866;PMS7003;36839;51.946;21.002;2024-01-07T04:34:06;8.50;7.00;5.00
50866;PMS7003;36839;51.946;21.002;2024-01-07T04:36:55;11.50;10.00;6.50
50866;PMS7003;36839;51.946;21.002;2024-01-07T04:39:53;14.50;8.50;6.50
50866;PMS7003;36839;51.946;21.002;2024-01-07T04:43:01;14.00;10.00;5.00
50866;PMS7003;36839;51.946;21.002;2024-01-07T04:45:39;13.00;8.00;7.00
50866;PMS7003;36839;51.946;21.002;2024-01-07T04:48:23;13.00;7.00;4.00
50866;PMS7003;36839;51.946;21.002;2024-01-07T04:51:22;10.00;8.00;7.00
50866;PMS7003;36839;51.946;21.002;2024-01-07T04:54:03;8.00;8.00;6.00
50866;PMS7003;36839;51.946;21.002;2024-01-07T04:56:57;15.00;15.00;11.00
50866;PMS7003;36839;51.946;21.002;2024-01-07T04:59:56;23.50;16.00;12.00
50866;PMS7003;36839;51.946;21.002;2024-01-07T05:02:42;25.00;18.00;13.00
50866;PMS7003;36839;51.946;21.002;2024-01-07T05:05:33;28.50;21.00;15.00
50866;PMS7003;36839;51.946;21.002;2024-01-07T05:08:25;30.00;20.00;12.00
50866;PMS7003;36839;51.946;21.002;2024-01-07T05:11:04;21.00;21.00;13.00
50866;PMS7003;36839;51.946;21.002;2024-01-07T05:13:37;27.50;21.50;15.50
50866;PMS7003;36839;51.946;21.002;2024-01-07T05:16:23;26.00;20.00;15.00
50866;PMS7003;36839;51.946;21.002;2024-01-07T05:19:00;31.00;21.00;13.00
50866;PMS7003;36839;51.946;21.002;2024-01-07T05:24:34;30.00;25.00;16.00
50866;PMS7003;36839;51.946;21.002;2024-01-07T05:27:24;19.00;19.00;15.00
50866;PMS7003;36839;51.946;21.002;2024-01-07T05:29:56;18.00;18.00;12.00
50866;PMS7003;36839;51.946;21.002;2024-01-07T05:32:41;15.50;15.50;11.00
50866;PMS7003;36839;51.946;21.002;2024-01-07T05:35:33;22.00;22.00;13.00
50866;PMS7003;36839;51.946;21.002;2024-01-07T05:41:54;26.50;23.00;16.00
50866;PMS7003;36839;51.946;21.002;2024-01-07T05:45:08;25.00;21.00;13.00
50866;PMS7003;36839;51.946;21.002;2024-01-07T05:48:01;25.00;21.00;15.00
50866;PMS7003;36839;51.946;21.002;2024-01-07T05:50:46;26.50;23.00;15.50
50866;PMS7003;36839;51.946;21.002;2024-01-07T05:53:28;29.00;20.50;15.00
50866;PMS7003;36839;51.946;21.002;2024-01-07T05:59:17;25.00;22.00;15.00
50866;PMS7003;36839;51.946;21.002;2024-01-07T06:02:04;29.50;25.00;17.00
50866;PMS7003;36839;51.946;21.002;2024-01-07T06:04:50;24.00;19.00;13.00
50866;PMS7003;36839;51.946;21.002;2024-01-07T06:07:32;25.00;19.00;11.33
50866;PMS7003;36839;51.946;21.002;2024-01-07T06:10:15;23.50;21.50;13.00
50866;PMS7003;36839;51.946;21.002;2024-01-07T06:13:02;13.00;11.00;7.00
50866;PMS7003;36839;51.946;21.002;2024-01-07T06:15:35;31.50;20.00;16.50
50866;PMS7003;36839;51.946;21.002;2024-01-07T06:18:28;31.50;24.50;17.00
50866;PMS7003;36839;51.946;21.002;2024-01-07T06:21:25;23.50;22.00;16.00
50866;PMS7003;36839;51.946;21.002;2024-01-07T06:24:12;25.00;24.00;15.00
50866;PMS7003;36839;51.946;21.002;2024-01-07T06:30:09;21.00;21.00;16.00
50866;PMS7003;36839;51.946;21.002;2024-01-07T06:33:19;28.50;23.00;14.00
50866;PMS7003;36839;51.946;21.002;2024-01-07T06:35:57;24.00;24.00;16.00
50866;PMS7003;36839;51.946;21.002;2024-01-07T06:38:40;27.50;20.50;15.00
50866;PMS7003;36839;51.946;21.002;2024-01-07T06:45:07;27.00;24.00;16.00
50866;PMS7003;36839;51.946;21.002;2024-01-07T06:48:09;25.50;20.00;13.00
50866;PMS7003;36839;51.946;21.002;2024-01-07T06:50:48;31.00;24.00;12.00
50866;PMS7003;36839;51.946;21.002;2024-01-07T06:53:23;34.00;25.00;19.00
50866;PMS7003;36839;51.946;21.002;2024-01-07T06:56:13;37.00;30.00;19.00
50866;PMS7003;36839;51.946;21.002;2024-01-07T06:59:00;25.00;22.00;15.00
50866;PMS7003;36839;51.946;21.002;2024-01-07T07:01:58;22.00;16.00;13.00
50866;PMS7003;36839;51.946;21.002;2024-01-07T07:04:37;28.50;25.00;16.50
50866;PMS7003;36839;51.946;21.002;2024-01-07T07:07:40;58.00;40.00;24.00
50866;PMS7003;36839;51.946;21.002;2024-01-07T07:10:40;36.00;30.00;16.00
50866;PMS7003;36839;51.946;21.002;2024-01-07T07:16:09;40.00;37.00;30.00
50866;PMS7003;36839;51.946;21.002;2024-01-07T07:18:43;49.00;43.50;28.00
50866;PMS7003;36839;51.946;21.002;2024-01-07T07:21:30;27.00;22.00;16.00
50866;PMS7003;36839;51.946;21.002;2024-01-07T07:27:34;35.00;27.00;18.00
50866;PMS7003;36839;51.946;21.002;2024-01-07T07:30:35;36.50;22.50;15.50
50866;PMS7003;36839;51.946;21.002;2024-01-07T07:33:12;34.00;25.00;18.00
50866;PMS7003;36839;51.946;21.002;2024-01-07T07:38:19;28.00;22.00;14.00
50866;PMS7003;36839;51.946;21.002;2024-01-07T07:49:10;33.00;24.00;15.00
50866;PMS7003;36839;51.946;21.002;2024-01-07T07:52:00;28.00;22.00;15.00
50866;PMS7003;36839;51.946;21.002;2024-01-07T08:00:44;22.00;18.00;13.00
50866;PMS7003;36839;51.946;21.002;2024-01-07T08:03:51;30.00;21.00;16.00
50866;PMS7003;36839;51.946;21.002;2024-01-07T08:06:54;24.00;21.00;16.00
50866;PMS7003;36839;51.946;21.002;2024-01-07T08:09:32;24.50;21.00;15.00
50866;PMS7003;36839;51.946;21.002;2024-01-07T08:12:18;22.00;19.00;14.00
50866;PMS7003;36839;51.946;21.002;2024-01-07T08:15:19;26.00;20.00;14.00
50866;PMS7003;36839;51.946;21.002;2024-01-07T08:17:59;17.00;12.50;9.50
50866;PMS7003;36839;51.946;21.002;2024-01-07T08:20:48;17.50;17.00;11.50
50866;PMS7003;36839;51.946;21.002;2024-01-07T08:23:45;19.00;13.00;8.00
50866;PMS7003;36839;51.946;21.002;2024-01-07T08:26:33;12.00;12.00;8.50
50866;PMS7003;36839;51.946;21.002;2024-01-07T08:29:15;15.00;13.00;9.00
50866;PMS7003;36839;51.946;21.002;2024-01-07T08:32:07;19.00;14.00;10.00
50866;PMS7003;36839;51.946;21.002;2024-01-07T08:34:48;16.00;15.00;10.00
50866;PMS7003;36839;51.946;21.002;2024-01-07T08:37:31;14.00;11.00;10.00
50866;PMS7003;36839;51.946;21.002;2024-01-07T08:40:57;16.00;7.00;5.00
50866;PMS7003;36839;51.946;21.002;2024-01-07T08:43:42;15.00;13.00;10.00
50866;PMS7003;36839;51.946;21.002;2024-01-07T08:46:33;19.00;16.50;12.00
50866;PMS7003;36839;51.946;21.002;2024-01-07T08:49:10;17.50;11.50;8.50
50866;PMS7003;36839;51.946;21.002;2024-01-07T08:54:36;17.00;11.00;8.00
50866;PMS7003;36839;51.946;21.002;2024-01-07T08:57:09;17.00;13.00;11.00
50866;PMS7003;36839;51.946;21.002;2024-01-07T09:00:00;15.00;14.00;10.00
50866;PMS7003;36839;51.946;21.002;2024-01-07T09:05:40;13.00;13.00;10.00
50866;PMS7003;36839;51.946;21.002;2024-01-07T09:11:39;18.00;16.00;10.00
50866;PMS7003;36839;51.946;21.002;2024-01-07T09:14:23;16.00;13.00;11.50
50866;PMS7003;36839;51.946;21.002;2024-01-07T09:16:58;17.00;13.00;11.00
50866;PMS7003;36839;51.946;21.002;2024-01-07T09:19:41;23.00;17.00;11.00
50866;PMS7003;36839;51.946;21.002;2024-01-07T09:22:16;20.00;15.00;9.00
50866;PMS7003;36839;51.946;21.002;2024-01-07T09:24:48;16.00;15.50;10.00
50866;PMS7003;36839;51.946;21.002;2024-01-07T09:27:16;23.00;14.00;10.00
50866;PMS7003;36839;51.946;21.002;2024-01-07T09:33:10;33.00;21.00;14.33
50866;PMS7003;36839;51.946;21.002;2024-01-07T09:36:08;24.00;19.00;13.00
50866;PMS7003;36839;51.946;21.002;2024-01-07T09:38:52;6.50;6.50;4.00
50866;PMS7003;36839;51.946;21.002;2024-01-07T09:41:35;22.50;18.00;13.00
50866;PMS7003;36839;51.946;21.002;2024-01-07T09:44:19;24.00;18.00;12.00
50866;PMS7003;36839;51.946;21.002;2024-01-07T09:47:27;20.00;14.00;11.00
50866;PMS7003;36839;51.946;21.002;2024-01-07T09:50:13;22.00;17.00;13.00
50866;PMS7003;36839;51.946;21.002;2024-01-07T09:53:01;24.00;21.00;15.50
50866;PMS7003;36839;51.946;21.002;2024-01-07T09:58:35;20.00;19.00;13.00
50866;PMS7003;36839;51.946;21.002;2024-01-07T10:01:08;14.00;14.00;11.00
50866;PMS7003;36839;51.946;21.002;2024-01-07T10:03:51;21.50;19.00;14.50
50866;PMS7003;36839;51.946;21.002;2024-01-07T10:06:22;21.00;20.00;13.00
50866;PMS7003;36839;51.946;21.002;2024-01-07T10:09:07;20.50;19.50;13.50
50866;PMS7003;36839;51.946;21.002;2024-01-07T10:11:49;15.50;12.00;8.00
50866;PMS7003;36839;51.946;21.002;2024-01-07T10:14:40;22.00;16.00;10.00
50866;PMS7003;36839;51.946;21.002;2024-01-07T10:17:34;19.00;13.50;9.00
50866;PMS7003;36839;51.946;21.002;2024-01-07T10:20:25;24.00;15.00;12.00
50866;PMS7003;36839;51.946;21.002;2024-01-07T10:23:12;21.00;17.00;11.00
50866;PMS7003;36839;51.946;21.002;2024-01-07T10:25:48;23.00;22.00;14.00
50866;PMS7003;36839;51.946;21.002;2024-01-07T10:28:50;29.00;22.00;16.00
50866;PMS7003;36839;51.946;21.002;2024-01-07T10:35:19;26.00;20.00;10.00
50866;PMS7003;36839;51.946;21.002;2024-01-07T10:37:53;33.00;31.00;19.50
50866;PMS7003;36839;51.946;21.002;2024-01-07T10:40:47;58.00;47.00;26.00
50866;PMS7003;36839;51.946;21.002;2024-01-07T10:43:51;60.00;47.00;32.00
50866;PMS7003;36839;51.946;21.002;2024-01-07T10:46:59;36.50;30.00;18.50
50866;PMS7003;36839;51.946;21.002;2024-01-07T10:49:50;36.00;22.00;16.50
50866;PMS7003;36839;51.946;21.002;2024-01-07T10:52:34;39.00;32.00;23.00
50866;PMS7003;36839;51.946;21.002;2024-01-07T10:55:08;52.50;38.00;25.00
50866;PMS7003;36839;51.946;21.002;2024-01-07T10:57:42;28.00;24.00;17.00
50866;PMS7003;36839;51.946;21.002;2024-01-07T11:00:22;26.00;22.00;16.00
50866;PMS7003;36839;51.946;21.002;2024-01-07T11:05:37;28.00;22.00;13.00
50866;PMS7003;36839;51.946;21.002;2024-01-07T11:11:23;21.00;21.00;15.50
50866;PMS7003;36839;51.946;21.002;2024-01-07T11:14:02;16.50;15.00;11.00
50866;PMS7003;36839;51.946;21.002;2024-01-07T11:19:08;20.00;20.00;15.00
50866;PMS7003;36839;51.946;21.002;2024-01-07T11:21:46;24.00;19.00;13.67
50866;PMS7003;36839;51.946;21.002;2024-01-07T11:25:00;25.00;19.00;13.00
50866;PMS7003;36839;51.946;21.002;2024-01-07T11:27:15;22.00;18.00;12.00
50866;PMS7003;36839;51.946;21.002;2024-01-07T11:29:43;19.00;12.50;7.00
50866;PMS7003;36839;51.946;21.002;2024-01-07T11:32:14;21.00;18.00;12.00
50866;PMS7003;36839;51.946;21.002;2024-01-07T11:34:54;20.00;17.50;12.00
50866;PMS7003;36839;51.946;21.002;2024-01-07T11:37:38;21.50;18.50;13.00
50866;PMS7003;36839;51.946;21.002;2024-01-07T11:40:09;26.00;20.00;12.00
50866;PMS7003;36839;51.946;21.002;2024-01-07T11:42:38;20.50;18.50;11.50
50866;PMS7003;36839;51.946;21.002;2024-01-07T11:45:09;25.00;22.00;14.00
50866;PMS7003;36839;51.946;21.002;2024-01-07T11:47:44;27.00;22.00;14.00
50866;PMS7003;36839;51.946;21.002;2024-01-07T11:50:21;25.00;18.00;13.00
50866;PMS7003;36839;51.946;21.002;2024-01-07T11:52:49;26.00;22.00;16.00
50866;PMS7003;36839;51.946;21.002;2024-01-07T11:55:16;24.00;19.00;15.00
50866;PMS7003;36839;51.946;21.002;2024-01-07T11:58:09;19.00;19.00;13.00
50866;PMS7003;36839;51.946;21.002;2024-01-07T12:03:08;29.50;23.50;18.00
50866;PMS7003;36839;51.946;21.002;2024-01-07T12:05:44;26.00;24.50;17.50
50866;PMS7003;36839;51.946;21.002;2024-01-07T12:08:11;25.00;22.00;15.00
50866;PMS7003;36839;51.946;21.002;2024-01-07T12:10:46;27.50;23.00;14.00
50866;PMS7003;36839;51.946;21.002;2024-01-07T12:13:13;28.50;21.00;14.00
50866;PMS7003;36839;51.946;21.002;2024-01-07T12:15:41;28.00;19.00;13.00
50866;PMS7003;36839;51.946;21.002;2024-01-07T12:18:08;22.33;14.00;10.33
50866;PMS7003;36839;51.946;21.002;2024-01-07T12:20:40;17.00;17.00;11.00
50866;PMS7003;36839;51.946;21.002;2024-01-07T12:23:09;21.00;18.00;13.00
50866;PMS7003;36839;51.946;21.002;2024-01-07T12:25:36;15.00;5.00;5.00
50866;PMS7003;36839;51.946;21.002;2024-01-07T12:28:06;17.00;15.00;14.00
50866;PMS7003;36839;51.946;21.002;2024-01-07T12:30:38;32.50;26.50;19.50
50866;PMS7003;36839;51.946;21.002;2024-01-07T12:33:04;20.00;11.00;10.50
50866;PMS7003;36839;51.946;21.002;2024-01-07T12:35:38;22.50;18.00;12.50
50866;PMS7003;36839;51.946;21.002;2024-01-07T12:38:05;17.00;17.00;12.00
50866;PMS7003;36839;51.946;21.002;2024-01-07T12:40:32;17.00;14.00;10.00
50866;PMS7003;36839;51.946;21.002;2024-01-07T12:43:02;20.50;18.50;11.50
50866;PMS7003;36839;51.946;21.002;2024-01-07T12:45:30;25.00;20.00;14.00
50866;PMS7003;36839;51.946;21.002;2024-01-07T12:48:01;21.00;13.00;11.00
50866;PMS7003;36839;51.946;21.002;2024-01-07T12:50:32;25.00;24.00;15.00
50866;PMS7003;36839;51.946;21.002;2024-01-07T12:53:01;15.00;15.00;12.00
50866;PMS7003;36839;51.946;21.002;2024-01-07T12:55:27;27.50;22.00;13.00
50866;PMS7003;36839;51.946;21.002;2024-01-07T12:57:59;14.50;10.00;10.00
50866;PMS7003;36839;51.946;21.002;2024-01-07T13:00:26;25.00;17.00;11.67
50866;PMS7003;36839;51.946;21.002;2024-01-07T13:02:56;34.00;26.00;14.00
50866;PMS7003;36839;51.946;21.002;2024-01-07T13:05:25;23.00;23.00;16.00
50866;PMS7003;36839;51.946;21.002;2024-01-07T13:08:00;23.00;17.00;10.00
50866;PMS7003;36839;51.946;21.002;2024-01-07T13:10:27;27.00;20.00;16.00
50866;PMS7003;36839;51.946;21.002;2024-01-07T13:13:01;17.00;16.00;12.00
50866;PMS7003;36839;51.946;21.002;2024-01-07T13:15:32;31.50;19.50;13.00
50866;PMS7003;36839;51.946;21.002;2024-01-07T13:18:06;28.00;21.00;16.00
50866;PMS7003;36839;51.946;21.002;2024-01-07T13:20:43;26.50;22.50;16.00
50866;PMS7003;36839;51.946;21.002;2024-01-07T13:23:38;23.00;22.00;13.33
50866;PMS7003;36839;51.946;21.002;2024-01-07T13:26:45;24.33;20.33;15.00
50866;PMS7003;36839;51.946;21.002;2024-01-07T13:32:07;34.00;23.00;16.00
50866;PMS7003;36839;51.946;21.002;2024-01-07T13:35:06;21.00;16.00;10.00
50866;PMS7003;36839;51.946;21.002;2024-01-07T13:40:56;18.00;18.00;13.00
50866;PMS7003;36839;51.946;21.002;2024-01-07T13:43:57;27.50;21.50;13.00
50866;PMS7003;36839;51.946;21.002;2024-01-07T13:46:44;15.00;13.00;12.00
50866;PMS7003;36839;51.946;21.002;2024-01-07T13:49:26;25.50;22.00;12.50
50866;PMS7003;36839;51.946;21.002;2024-01-07T13:52:07;36.00;19.00;15.00
50866;PMS7003;36839;51.946;21.002;2024-01-07T13:55:07;25.00;18.00;10.00
50866;PMS7003;36839;51.946;21.002;2024-01-07T13:58:06;12.50;12.50;9.50
50866;PMS7003;36839;51.946;21.002;2024-01-07T14:03:49;20.00;17.00;14.00
50866;PMS7003;36839;51.946;21.002;2024-01-07T14:06:21;25.00;24.00;16.00
50866;PMS7003;36839;51.946;21.002;2024-01-07T14:08:51;14.00;12.00;9.00
50866;PMS7003;36839;51.946;21.002;2024-01-07T14:11:19;24.00;16.00;12.00
50866;PMS7003;36839;51.946;21.002;2024-01-07T14:13:54;37.00;22.00;15.00
50866;PMS7003;36839;51.946;21.002;2024-01-07T14:16:21;17.00;16.00;12.00
50866;PMS7003;36839;51.946;21.002;2024-01-07T14:18:48;21.00;19.00;13.00
50866;PMS7003;36839;51.946;21.002;2024-01-07T14:23:59;24.00;20.00;14.00
50866;PMS7003;36839;51.946;21.002;2024-01-07T14:26:25;20.00;20.00;14.00
50866;PMS7003;36839;51.946;21.002;2024-01-07T14:28:52;26.00;21.00;14.00
50866;PMS7003;36839;51.946;21.002;2024-01-07T14:31:21;16.00;12.00;7.00
50866;PMS7003;36839;51.946;21.002;2024-01-07T14:33:51;25.00;20.50;14.00
50866;PMS7003;36839;51.946;21.002;2024-01-07T14:36:20;22.00;21.00;13.00
50866;PMS7003;36839;51.946;21.002;2024-01-07T14:38:48;24.00;21.00;15.00
50866;PMS7003;36839;51.946;21.002;2024-01-07T14:41:14;24.00;22.00;13.00
50866;PMS7003;36839;51.946;21.002;2024-01-07T14:43:43;24.00;19.00;15.00
50866;PMS7003;36839;51.946;21.002;2024-01-07T14:46:12;21.00;19.00;13.00
50866;PMS7003;36839;51.946;21.002;2024-01-07T14:48:38;19.00;10.00;9.00
50866;PMS7003;36839;51.946;21.002;2024-01-07T14:51:08;24.50;24.50;16.00
50866;PMS7003;36839;51.946;21.002;2024-01-07T14:53:40;15.00;12.00;10.00
50866;PMS7003;36839;51.946;21.002;2024-01-07T14:56:06;28.00;18.00;13.00
50866;PMS7003;36839;51.946;21.002;2024-01-07T14:58:41;21.00;18.00;12.00
50866;PMS7003;36839;51.946;21.002;2024-01-07T15:01:10;24.00;21.00;12.00
50866;PMS7003;36839;51.946;21.002;2024-01-07T15:03:45;29.50;22.00;12.50
50866;PMS7003;36839;51.946;21.002;2024-01-07T15:06:12;25.00;18.50;11.00
50866;PMS7003;36839;51.946;21.002;2024-01-07T15:08:41;27.50;20.00;15.00
50866;PMS7003;36839;51.946;21.002;2024-01-07T15:11:13;25.00;19.00;13.00
50866;PMS7003;36839;51.946;21.002;2024-01-07T15:13:45;31.00;22.00;15.00
50866;PMS7003;36839;51.946;21.002;2024-01-07T15:16:12;26.00;22.50;14.00
50866;PMS7003;36839;51.946;21.002;2024-01-07T15:18:40;31.00;25.00;15.00
50866;PMS7003;36839;51.946;21.002;2024-01-07T15:21:07;37.00;29.00;18.50
50866;PMS7003;36839;51.946;21.002;2024-01-07T15:23:35;27.00;20.00;14.00
50866;PMS7003;36839;51.946;21.002;2024-01-07T15:26:01;38.00;35.00;26.00
50866;PMS7003;36839;51.946;21.002;2024-01-07T15:28:32;46.00;31.00;21.00
50866;PMS7003;36839;51.946;21.002;2024-01-07T15:31:00;40.00;38.50;27.00
50866;PMS7003;36839;51.946;21.002;2024-01-07T15:33:28;27.50;24.50;16.50
50866;PMS7003;36839;51.946;21.002;2024-01-07T15:35:56;36.50;30.00;19.00
50866;PMS7003;36839;51.946;21.002;2024-01-07T15:38:24;21.00;19.00;12.00
50866;PMS7003;36839;51.946;21.002;2024-01-07T15:40:51;19.00;19.00;15.00
50866;PMS7003;36839;51.946;21.002;2024-01-07T15:43:19;29.00;24.00;18.00
50866;PMS7003;36839;51.946;21.002;2024-01-07T15:45:51;28.00;24.00;16.00
50866;PMS7003;36839;51.946;21.002;2024-01-07T15:50:47;27.00;24.00;15.00
50866;PMS7003;36839;51.946;21.002;2024-01-07T15:53:22;24.50;21.00;12.50
50866;PMS7003;36839;51.946;21.002;2024-01-07T15:55:54;25.00;16.00;10.00
50866;PMS7003;36839;51.946;21.002;2024-01-07T15:58:26;19.00;19.00;12.50
50866;PMS7003;36839;51.946;21.002;2024-01-07T16:00:59;22.00;18.50;13.00
50866;PMS7003;36839;51.946;21.002;2024-01-07T16:03:28;16.00;15.00;10.00
50866;PMS7003;36839;51.946;21.002;2024-01-07T16:05:58;29.50;19.50;12.00
50866;PMS7003;36839;51.946;21.002;2024-01-07T16:08:29;15.00;15.00;12.00
50866;PMS7003;36839;51.946;21.002;2024-01-07T16:10:59;14.50;12.00;7.00
50866;PMS7003;36839;51.946;21.002;2024-01-07T16:13:27;18.00;15.00;10.00
50866;PMS7003;36839;51.946;21.002;2024-01-07T16:15:59;20.50;14.00;10.00
50866;PMS7003;36839;51.946;21.002;2024-01-07T16:18:27;24.00;16.00;12.00
50866;PMS7003;36839;51.946;21.002;2024-01-07T16:20:57;22.00;16.00;10.00
50866;PMS7003;36839;51.946;21.002;2024-01-07T16:23:24;21.00;18.00;12.00
50866;PMS7003;36839;51.946;21.002;2024-01-07T16:25:58;21.67;19.67;10.67
50866;PMS7003;36839;51.946;21.002;2024-01-07T16:28:25;18.00;16.00;10.00
50866;PMS7003;36839;51.946;21.002;2024-01-07T16:30:54;17.50;14.50;9.50
50866;PMS7003;36839;51.946;21.002;2024-01-07T16:33:35;16.00;14.00;11.00
50866;PMS7003;36839;51.946;21.002;2024-01-07T16:36:04;18.00;15.00;10.00
50866;PMS7003;36839;51.946;21.002;2024-01-07T16:38:32;17.00;15.00;10.00
50866;PMS7003;36839;51.946;21.002;2024-01-07T16:41:04;14.00;12.50;8.50
50866;PMS7003;36839;51.946;21.002;2024-01-07T16:43:38;18.33;15.67;10.00
50866;PMS7003;36839;51.946;21.002;2024-01-07T16:46:07;18.00;18.00;10.00
50866;PMS7003;36839;51.946;21.002;2024-01-07T16:48:39;21.00;20.00;13.00
50866;PMS7003;36839;51.946;21.002;2024-01-07T16:51:07;25.00;15.00;12.00
50866;PMS7003;36839;51.946;21.002;2024-01-07T16:53:38;21.50;18.50;11.00
50866;PMS7003;36839;51.946;21.002;2024-01-07T16:56:09;12.00;9.50;7.00
50866;PMS7003;36839;51.946;21.002;2024-01-07T16:58:35;24.00;16.00;12.00
50866;PMS7003;36839;51.946;21.002;2024-01-07T17:01:02;18.00;15.00;10.00